Olga, Washington
Current Conditions -  °F | °C
As of 12:55 AM on Saturday 29 Nov 2014 (Local Time) from KORS Reporting Station
Overcast Overcast  
Wind Chill: -5°   Ceiling: 1800
Heat Index:   Visibility: 10mi
Dew Point: -4°   Wind: 12mph
Humidity: 75%   Direction: 60°ENE
Pressure: 29.56"   Gusts: NA
Location:  48.62°N, 122.83°W
Report Text: KORS 290855Z AUTO 06010KT 10SM BKN018 OVC028 00/M04 A2956 RMK AO2
Loading
Personal Weather Stations






























Interactive Weather Map New forecast layout! Learn more

10-Day Weather Forecast

Advertisements
Track Severe Weather on mobile